Time;durP1;ratioP1;P1;durP2;ratioP2;P2;SDS_P1;SDS_P2;PMS_P1;PMS_P2;Temp;Humidity;BMP_temperature;BMP_pressure;BME280_temperature;BME280_humidity;BME280_pressure;Samples;Min_cycle;Max_cycle;Signal;HPM_P1;HPM_P2
2024/01/17 00:00:16;;;;;;;6.40;4.70;;;19.50;39.70;;;;;;222424;1256;22708;-54
2024/01/17 00:05:40;;;;;;;7.40;5.00;;;19.70;39.70;;;;;;222659;1256;24104;-57
2024/01/17 00:10:45;;;;;;;5.90;5.30;;;20.40;38.70;;;;;;222533;1265;24318;-57
2024/01/17 00:15:49;;;;;;;6.80;5.40;;;20.80;38.20;;;;;;222782;1254;24199;-56
2024/01/17 00:20:54;;;;;;;9.10;5.50;;;20.90;37.90;;;;;;222481;1260;22999;-56
2024/01/17 00:25:58;;;;;;;5.90;4.60;;;20.90;38.10;;;;;;223010;1265;24340;-58
2024/01/17 00:31:03;;;;;;;7.40;5.30;;;20.80;38.30;;;;;;222934;1263;25391;-57
2024/01/17 00:36:08;;;;;;;5.70;4.80;;;20.70;38.40;;;;;;223154;1263;22527;-53
2024/01/17 00:41:13;;;;;;;7.30;5.20;;;20.40;39.10;;;;;;222660;1267;26543;-58
2024/01/17 00:46:18;;;;;;;6.40;5.00;;;20.20;39.10;;;;;;222804;1266;22542;-59
2024/01/17 00:51:23;;;;;;;9.60;5.30;;;20.10;39.90;;;;;;222649;1261;22531;-54
2024/01/17 00:56:27;;;;;;;7.90;5.40;;;19.90;40.10;;;;;;222800;1264;26444;-55
2024/01/17 01:01:31;;;;;;;7.10;5.00;;;19.80;39.90;;;;;;223111;1263;22560;-58
2024/01/17 01:06:53;;;;;;;9.00;5.10;;;19.80;40.30;;;;;;222511;1263;22629;-56
2024/01/17 01:11:57;;;;;;;9.10;5.80;;;19.70;40.00;;;;;;222900;1264;22630;-57
2024/01/17 01:17:02;;;;;;;8.30;5.20;;;19.70;39.90;;;;;;222448;1267;25335;-57
2024/01/17 01:22:07;;;;;;;7.70;5.10;;;19.60;40.00;;;;;;222506;1258;22528;-55
2024/01/17 01:27:11;;;;;;;6.40;5.00;;;19.60;40.00;;;;;;223006;1265;22787;-55
2024/01/17 01:32:16;;;;;;;7.50;5.20;;;19.60;40.00;;;;;;222937;1259;24327;-57
2024/01/17 01:37:21;;;;;;;6.90;5.20;;;19.60;39.80;;;;;;221087;1267;24377;-57
2024/01/17 01:42:25;;;;;;;8.90;5.40;;;19.50;39.90;;;;;;221104;1270;24383;-58
2024/01/17 01:47:30;;;;;;;8.70;5.40;;;19.50;40.00;;;;;;221041;1267;22561;-55
2024/01/17 01:52:38;;;;;;;6.80;4.90;;;19.40;40.00;;;;;;221337;1270;24213;-57
2024/01/17 01:57:50;;;;;;;7.80;5.50;;;19.80;39.40;;;;;;220406;1279;24492;-55
2024/01/17 02:02:55;;;;;;;7.30;5.20;;;20.40;38.60;;;;;;221040;1267;22526;-58
2024/01/17 02:08:01;;;;;;;8.90;5.70;;;20.90;38.20;;;;;;221598;1260;24373;-57
2024/01/17 02:13:07;;;;;;;9.80;5.80;;;21.00;37.70;;;;;;221198;1267;25552;-57
2024/01/17 02:18:11;;;;;;;6.20;5.10;;;21.00;37.80;;;;;;220835;1263;24409;-55
2024/01/17 02:23:26;;;;;;;8.10;5.30;;;20.80;38.00;;;;;;222263;1268;24382;-60
2024/01/17 02:28:31;;;;;;;8.40;5.40;;;20.50;38.50;;;;;;222473;1266;22520;-57
2024/01/17 02:33:36;;;;;;;9.10;6.00;;;20.40;39.00;;;;;;222723;1262;23589;-57
2024/01/17 02:38:40;;;;;;;10.10;5.70;;;20.20;39.10;;;;;;222365;1265;24386;-57
2024/01/17 02:43:45;;;;;;;8.30;5.60;;;20.10;39.30;;;;;;222398;1267;22546;-57
2024/01/17 02:48:50;;;;;;;9.30;6.10;;;19.90;39.80;;;;;;222000;1261;24274;-55
2024/01/17 02:53:54;;;;;;;11.40;6.20;;;19.80;39.50;;;;;;222410;1264;24279;-54
2024/01/17 02:59:01;;;;;;;8.90;5.70;;;19.80;39.80;;;;;;223349;1256;22704;-59
2024/01/17 03:04:06;;;;;;;9.70;6.20;;;19.70;39.70;;;;;;222336;1268;23769;-58
2024/01/17 03:09:13;;;;;;;8.70;6.30;;;19.60;39.80;;;;;;222176;1268;26513;-56
2024/01/17 03:14:19;;;;;;;8.10;5.60;;;19.60;39.70;;;;;;222361;1246;22585;-54
2024/01/17 03:19:23;;;;;;;7.30;5.80;;;19.60;39.70;;;;;;222481;1262;22520;-56
2024/01/17 03:24:31;;;;;;;7.10;5.70;;;19.60;40.00;;;;;;222195;1253;24027;-57
2024/01/17 03:29:36;;;;;;;7.30;5.80;;;19.50;39.70;;;;;;222122;1268;24180;-58
2024/01/17 03:34:43;;;;;;;9.70;5.90;;;19.50;39.60;;;;;;222437;1262;24254;-56
2024/01/17 03:39:47;;;;;;;8.50;5.90;;;19.40;39.60;;;;;;222003;1265;26572;-56
2024/01/17 03:44:52;;;;;;;7.70;6.30;;;19.50;39.60;;;;;;222488;1262;24187;-56
2024/01/17 03:49:57;;;;;;;9.30;6.00;;;19.90;39.00;;;;;;222506;1266;22532;-53
2024/01/17 03:55:01;;;;;;;8.60;5.90;;;20.60;38.00;;;;;;222735;1256;24237;-57
2024/01/17 04:00:06;;;;;;;7.50;6.20;;;21.00;37.50;;;;;;222504;1265;24180;-58
2024/01/17 04:05:11;;;;;;;8.50;5.80;;;21.00;37.40;;;;;;222884;1263;25325;-57
2024/01/17 04:10:16;;;;;;;9.30;6.80;;;20.90;37.60;;;;;;222894;1261;22623;-58
2024/01/17 04:15:20;;;;;;;7.40;5.90;;;20.80;37.70;;;;;;222810;1266;22511;-58
2024/01/17 04:20:25;;;;;;;8.10;6.10;;;20.60;38.00;;;;;;222519;1263;22568;-58
2024/01/17 04:25:29;;;;;;;9.70;6.90;;;20.30;38.60;;;;;;222381;1264;22522;-56
2024/01/17 04:30:33;;;;;;;10.30;6.30;;;20.10;39.30;;;;;;222616;1244;22518;-57
2024/01/17 04:35:37;;;;;;;7.50;5.60;;;20.00;39.00;;;;;;222247;1263;24210;-57
2024/01/17 04:40:42;;;;;;;8.50;6.80;;;19.90;39.10;;;;;;222188;1256;23715;-56
2024/01/17 04:45:48;;;;;;;9.40;6.80;;;19.80;39.30;;;;;;222338;1262;22543;-58
2024/01/17 04:50:58;;;;;;;8.80;6.70;;;19.70;39.40;;;;;;222155;1265;22586;-59
2024/01/17 04:56:06;;;;;;;7.70;6.50;;;19.70;39.60;;;;;;222125;1262;22799;-57
2024/01/17 05:01:10;;;;;;;8.90;6.70;;;19.60;39.40;;;;;;222121;1261;24223;-56
2024/01/17 05:06:14;;;;;;;10.70;7.00;;;19.60;39.40;;;;;;222022;1246;24269;-57
2024/01/17 05:11:21;;;;;;;8.90;6.80;;;19.60;39.30;;;;;;221966;1261;22692;-55
2024/01/17 05:16:26;;;;;;;9.10;6.80;;;19.50;39.30;;;;;;222514;1263;22695;-55
2024/01/17 05:21:30;;;;;;;10.50;6.70;;;19.50;39.20;;;;;;222656;1265;22572;-55
2024/01/17 05:26:34;;;;;;;9.10;6.50;;;19.50;39.90;;;;;;222030;1261;22516;-57
2024/01/17 05:31:39;;;;;;;8.90;6.80;;;19.40;39.40;;;;;;222255;1265;22924;-55
2024/01/17 05:36:43;;;;;;;10.30;7.60;;;19.20;39.50;;;;;;222604;1267;23271;-54
2024/01/17 05:41:47;;;;;;;9.50;7.10;;;19.10;39.60;;;;;;222649;1266;24241;-57
2024/01/17 05:46:52;;;;;;;9.30;7.90;;;19.00;39.70;;;;;;221966;1260;463810;-53
2024/01/17 05:51:56;;;;;;;9.20;6.90;;;19.00;39.80;;;;;;222356;1264;22527;-58
2024/01/17 05:57:01;;;;;;;11.10;8.40;;;19.00;39.80;;;;;;222447;1267;23918;-57
2024/01/17 06:02:06;;;;;;;10.50;7.40;;;18.90;39.80;;;;;;222439;1263;22518;-58
2024/01/17 06:07:10;;;;;;;11.10;7.30;;;18.90;39.90;;;;;;222653;1255;24228;-57
2024/01/17 06:12:15;;;;;;;9.40;7.00;;;18.90;39.80;;;;;;222413;1264;24351;-57
2024/01/17 06:17:20;;;;;;;9.00;6.80;;;19.30;39.30;;;;;;222417;1267;25269;-56
2024/01/17 06:22:24;;;;;;;11.80;7.90;;;20.00;38.30;;;;;;223001;1262;22699;-55
2024/01/17 06:27:28;;;;;;;10.00;7.20;;;20.50;37.60;;;;;;222283;1266;23451;-57
2024/01/17 06:32:32;;;;;;;12.60;8.10;;;20.60;37.40;;;;;;222573;1264;25478;-56
2024/01/17 06:37:37;;;;;;;10.90;7.80;;;20.50;37.50;;;;;;222475;1266;22529;-55
2024/01/17 06:42:42;;;;;;;9.90;7.40;;;20.50;37.60;;;;;;222466;1263;24351;-55
2024/01/17 06:47:47;;;;;;;10.10;7.60;;;20.30;37.90;;;;;;222510;1267;25325;-58
2024/01/17 06:52:51;;;;;;;11.00;7.60;;;20.20;38.00;;;;;;222504;1267;26638;-57
2024/01/17 06:57:56;;;;;;;10.20;7.60;;;20.00;38.40;;;;;;222478;1254;24229;-57
2024/01/17 07:03:00;;;;;;;8.60;7.20;;;19.80;39.30;;;;;;222705;1263;22514;-58
2024/01/17 07:08:05;;;;;;;8.40;7.30;;;19.70;38.80;;;;;;222447;1260;25434;-56
2024/01/17 07:13:11;;;;;;;10.00;7.30;;;19.60;38.90;;;;;;222911;1265;22514;-57
2024/01/17 07:18:15;;;;;;;10.60;8.10;;;19.50;38.90;;;;;;222564;1256;24295;-57
2024/01/17 07:23:20;;;;;;;11.90;7.80;;;19.40;39.00;;;;;;222382;1266;24247;-56
2024/01/17 07:28:24;;;;;;;8.80;7.40;;;19.30;39.10;;;;;;222414;1266;24439;-58
2024/01/17 07:33:29;;;;;;;10.00;8.00;;;19.30;39.10;;;;;;222662;1264;25437;-56
2024/01/17 07:38:33;;;;;;;12.00;7.80;;;19.30;39.30;;;;;;222682;1267;22518;-55
2024/01/17 07:43:40;;;;;;;10.00;7.50;;;19.20;39.10;;;;;;222523;1264;22767;-57
2024/01/17 07:48:44;;;;;;;9.20;7.20;;;19.20;39.20;;;;;;222178;1264;26469;-57
2024/01/17 07:53:53;;;;;;;12.10;8.50;;;19.10;39.10;;;;;;222420;1265;22525;-54
2024/01/17 07:58:57;;;;;;;9.80;7.60;;;19.00;39.60;;;;;;222340;1267;22528;-56
2024/01/17 08:04:05;;;;;;;12.40;8.70;;;19.00;39.80;;;;;;222406;1260;22514;-57
2024/01/17 08:09:26;;;;;;;10.60;8.30;;;18.90;39.40;;;;;;222711;1267;25426;-55
2024/01/17 08:14:30;;;;;;;11.30;7.70;;;19.00;39.50;;;;;;222803;1263;24330;-56
2024/01/17 08:19:34;;;;;;;9.10;7.80;;;18.90;39.50;;;;;;222638;1264;22793;-55
2024/01/17 08:24:41;;;;;;;12.80;8.80;;;18.90;39.90;;;;;;222186;1267;25357;-55
2024/01/17 08:29:46;;;;;;;11.70;8.50;;;19.60;38.60;;;;;;221567;1264;22517;-56
2024/01/17 08:34:53;;;;;;;14.60;8.70;;;20.30;37.70;;;;;;221208;1271;25387;-57
2024/01/17 08:39:57;;;;;;;12.10;8.80;;;20.60;37.30;;;;;;221076;1252;22959;-57
2024/01/17 08:45:02;;;;;;;9.70;7.70;;;20.60;37.30;;;;;;221377;1271;24222;-53
2024/01/17 08:50:07;;;;;;;12.10;8.50;;;20.30;37.60;;;;;;221208;1273;24273;-58
2024/01/17 08:55:12;;;;;;;13.30;8.20;;;20.10;38.20;;;;;;222351;1266;22521;-56
2024/01/17 09:00:16;;;;;;;12.80;8.80;;;19.80;38.80;;;;;;222290;1267;22511;-58
2024/01/17 09:05:24;;;;;;;10.70;8.50;;;19.70;38.70;;;;;;222242;1267;22516;-58
2024/01/17 09:10:29;;;;;;;13.20;8.80;;;19.70;39.10;;;;;;222598;1263;22579;-57
2024/01/17 09:15:34;;;;;;;11.00;8.30;;;19.60;38.80;;;;;;222415;1266;24236;-55
2024/01/17 09:20:38;;;;;;;13.70;9.40;;;19.60;38.80;;;;;;221740;1269;24230;-56
2024/01/17 09:25:43;;;;;;;14.00;9.30;;;19.60;38.80;;;;;;221913;1270;22540;-56
2024/01/17 09:30:47;;;;;;;12.30;8.70;;;19.50;38.90;;;;;;221944;1267;24205;-57
2024/01/17 09:35:52;;;;;;;10.70;8.70;;;19.40;39.20;;;;;;222167;1269;22527;-56
2024/01/17 09:41:07;;;;;;;14.70;10.00;;;19.30;39.40;;;;;;221992;1267;22527;-57
2024/01/17 09:46:12;;;;;;;11.60;8.90;;;19.20;39.60;;;;;;222359;1259;22524;-58
2024/01/17 09:51:23;;;;;;;10.70;8.50;;;19.10;39.80;;;;;;222320;1263;24369;-58
2024/01/17 09:56:30;;;;;;;8.80;7.60;;;19.10;39.80;;;;;;222360;1266;24193;-57
2024/01/17 10:01:36;;;;;;;8.80;7.70;;;19.10;39.90;;;;;;222670;1260;22521;-57
2024/01/17 10:06:44;;;;;;;11.80;8.70;;;19.10;39.90;;;;;;222805;1266;22520;-56
2024/01/17 10:11:50;;;;;;;13.70;9.50;;;19.10;40.30;;;;;;222769;1261;24379;-54
2024/01/17 10:16:58;;;;;;;12.40;8.70;;;19.10;40.00;;;;;;222379;1266;22837;-57
2024/01/17 10:22:06;;;;;;;12.40;8.60;;;19.10;40.00;;;;;;222256;1266;22529;-55
2024/01/17 10:27:11;;;;;;;10.50;8.30;;;19.10;40.00;;;;;;222490;1263;22518;-56
2024/01/17 10:32:18;;;;;;;10.90;9.10;;;19.00;40.30;;;;;;222509;1263;24184;-51
2024/01/17 10:37:24;;;;;;;12.40;8.90;;;19.00;40.00;;;;;;223059;1259;22527;-56
2024/01/17 10:42:29;;;;;;;10.50;8.00;;;19.00;40.40;;;;;;222402;1256;24203;-53
2024/01/17 10:47:33;;;;;;;12.80;8.50;;;19.00;39.90;;;;;;222519;1266;22772;-54
2024/01/17 10:52:41;;;;;;;10.30;8.00;;;18.90;39.90;;;;;;222612;1266;24193;-57
2024/01/17 10:57:50;;;;;;;11.20;8.70;;;18.90;40.00;;;;;;222548;1264;23822;-57
2024/01/17 11:02:59;;;;;;;;;;;18.90;40.10;;;;;;222285;1260;24180;-57
2024/01/17 11:08:10;;;;;;;10.80;8.10;;;18.80;40.10;;;;;;222462;1261;22535;-56
2024/01/17 11:13:19;;;;;;;12.10;8.40;;;18.80;40.20;;;;;;222657;1265;22659;-54
2024/01/17 11:18:35;;;;;;;11.80;8.80;;;18.80;40.10;;;;;;222036;1263;22541;-55
2024/01/17 11:23:53;;;;;;;11.40;8.40;;;18.70;40.10;;;;;;222759;1267;24119;-55
2024/01/17 11:29:13;;;;;;;11.60;8.50;;;18.60;40.20;;;;;;222658;1267;24173;-55
2024/01/17 11:34:19;;;;;;;11.30;8.30;;;18.60;40.30;;;;;;222399;1257;22537;-56
2024/01/17 11:39:25;;;;;;;11.20;8.30;;;18.60;40.20;;;;;;222146;1267;25300;-53
2024/01/17 11:44:29;;;;;;;10.40;7.70;;;19.00;39.60;;;;;;222311;1255;24888;-55
2024/01/17 11:49:41;;;;;;;12.00;8.00;;;19.70;38.60;;;;;;222167;1250;22515;-55
2024/01/17 11:54:49;;;;;;;9.70;7.90;;;20.20;37.80;;;;;;222225;1267;22538;-56
2024/01/17 12:00:07;;;;;;;10.00;7.80;;;20.40;37.40;;;;;;222506;1262;25349;-59
2024/01/17 12:05:14;;;;;;;10.00;7.50;;;20.40;37.50;;;;;;222313;1256;23131;-56
2024/01/17 12:10:18;;;;;;;10.50;7.90;;;20.20;37.80;;;;;;220972;1269;24967;-54
2024/01/17 12:15:26;;;;;;;9.00;7.90;;;20.10;38.40;;;;;;221010;1273;25394;-57
2024/01/17 12:20:31;;;;;;;10.10;8.30;;;19.70;38.70;;;;;;221071;1273;22548;-57
2024/01/17 12:25:35;;;;;;;11.10;7.90;;;19.50;39.20;;;;;;221193;1268;22549;-55
2024/01/17 12:30:40;;;;;;;11.50;7.40;;;19.40;39.00;;;;;;222202;1267;26525;-57
2024/01/17 12:35:44;;;;;;;9.80;7.60;;;19.30;39.20;;;;;;222266;1267;23713;-56
2024/01/17 12:40:50;;;;;;;9.40;8.10;;;19.30;39.30;;;;;;222056;1266;23018;-58
2024/01/17 12:45:56;;;;;;;11.10;8.30;;;19.20;39.40;;;;;;222027;1266;22645;-55
2024/01/17 12:51:02;;;;;;;10.50;7.70;;;19.10;39.40;;;;;;222035;1265;22602;-55
2024/01/17 12:56:07;;;;;;;10.30;8.30;;;19.10;39.80;;;;;;222357;1267;22793;-56
2024/01/17 13:01:16;;;;;;;7.90;7.10;;;19.00;39.40;;;;;;222701;1260;24244;-57
2024/01/17 13:06:21;;;;;;;13.20;8.10;;;18.90;39.60;;;;;;222149;1267;22658;-55
2024/01/17 13:11:28;;;;;;;10.10;7.60;;;19.00;39.60;;;;;;222219;1263;23541;-57
2024/01/17 13:16:33;;;;;;;10.70;7.90;;;18.90;39.50;;;;;;222617;1267;24192;-57
2024/01/17 13:21:37;;;;;;;11.30;8.00;;;18.80;39.70;;;;;;222260;1263;24085;-57
2024/01/17 13:26:43;;;;;;;11.80;7.60;;;18.80;39.80;;;;;;222038;1268;25353;-56
2024/01/17 13:31:48;;;;;;;12.20;7.70;;;18.70;39.70;;;;;;222216;1267;23285;-54
2024/01/17 13:36:53;;;;;;;8.90;7.40;;;18.70;39.70;;;;;;222398;1266;23127;-56
2024/01/17 13:41:58;;;;;;;9.30;7.70;;;18.80;39.70;;;;;;222157;1266;24066;-57
2024/01/17 13:47:04;;;;;;;10.40;7.20;;;19.30;39.00;;;;;;222264;1266;22834;-56
2024/01/17 13:52:09;;;;;;;9.20;7.30;;;19.90;38.10;;;;;;222436;1264;25229;-56
2024/01/17 13:57:14;;;;;;;10.80;7.70;;;20.30;37.50;;;;;;222315;1257;24212;-56
2024/01/17 14:02:19;;;;;;;11.80;7.90;;;20.30;37.40;;;;;;221980;1262;22630;-57
2024/01/17 14:07:24;;;;;;;9.30;7.40;;;20.30;37.50;;;;;;221823;1261;23171;-56
2024/01/17 14:12:29;;;;;;;11.70;7.80;;;20.20;37.80;;;;;;221885;1259;22524;-56
2024/01/17 14:17:36;;;;;;;9.00;7.20;;;20.00;37.90;;;;;;221823;1267;25576;-55
2024/01/17 14:22:40;;;;;;;10.80;7.30;;;19.80;38.30;;;;;;221907;1264;24301;-57
2024/01/17 14:27:45;;;;;;;8.50;7.40;;;19.70;38.50;;;;;;222137;1255;26209;-56
2024/01/17 14:32:49;;;;;;;9.20;7.10;;;19.50;38.70;;;;;;225710;1267;22657;-54
2024/01/17 14:37:55;;;;;;;10.10;7.80;;;19.60;38.70;;;;;;222511;1268;24167;-57
2024/01/17 14:42:59;;;;;;;9.30;7.40;;;19.40;38.90;;;;;;221868;1257;25407;-55
2024/01/17 14:48:07;;;;;;;10.00;8.00;;;19.20;39.00;;;;;;221740;1268;22803;-56
2024/01/17 14:53:12;;;;;;;8.60;6.50;;;19.20;39.30;;;;;;221671;1263;24376;-58
2024/01/17 14:58:17;;;;;;;9.60;7.70;;;19.10;39.30;;;;;;221721;1260;24192;-55
2024/01/17 15:03:22;;;;;;;10.30;7.70;;;19.00;39.40;;;;;;221803;1268;22687;-55
2024/01/17 15:08:26;;;;;;;8.30;7.40;;;18.90;39.40;;;;;;222385;1267;24380;-55
2024/01/17 15:13:31;;;;;;;9.60;7.40;;;18.90;39.50;;;;;;222045;1267;24194;-56
2024/01/17 15:18:35;;;;;;;10.50;8.00;;;18.90;39.50;;;;;;221909;1254;24216;-56
2024/01/17 15:23:41;;;;;;;9.40;7.50;;;18.70;39.50;;;;;;221767;1267;25353;-54
2024/01/17 15:28:45;;;;;;;12.80;8.30;;;18.70;39.50;;;;;;222044;1265;23938;-56
2024/01/17 15:33:50;;;;;;;8.90;7.10;;;18.70;39.60;;;;;;221899;1267;26585;-55
2024/01/17 15:38:58;;;;;;;13.10;8.10;;;18.60;39.60;;;;;;222100;1257;24202;-56
2024/01/17 15:44:06;;;;;;;8.90;6.80;;;18.70;39.70;;;;;;222212;1264;26293;-57
2024/01/17 15:49:14;;;;;;;10.50;7.40;;;19.20;38.80;;;;;;222290;1264;25562;-54
2024/01/17 15:54:19;;;;;;;11.00;8.10;;;19.80;37.90;;;;;;221923;1267;22533;-57
2024/01/17 15:59:27;;;;;;;12.60;8.90;;;20.20;37.80;;;;;;222179;1256;22710;-57
2024/01/17 16:04:35;;;;;;;9.50;7.40;;;20.20;37.90;;;;;;222715;1260;25390;-58
2024/01/17 16:09:39;;;;;;;9.40;6.90;;;20.20;37.50;;;;;;222243;1264;22533;-57
2024/01/17 16:14:52;;;;;;;7.80;7.00;;;20.10;37.80;;;;;;222265;1266;24242;-55
2024/01/17 16:19:57;;;;;;;9.00;7.20;;;19.90;37.80;;;;;;222617;1260;25387;-56
2024/01/17 16:25:02;;;;;;;9.70;8.00;;;19.70;38.30;;;;;;222350;1261;25335;-58
2024/01/17 16:30:11;;;;;;;8.70;7.10;;;19.60;38.70;;;;;;222093;1261;22538;-55
2024/01/17 16:35:16;;;;;;;12.20;7.70;;;19.50;38.70;;;;;;222225;1267;25623;-56
2024/01/17 16:40:21;;;;;;;7.90;7.10;;;19.30;38.80;;;;;;222498;1264;25265;-57
2024/01/17 16:45:28;;;;;;;9.10;7.40;;;19.20;39.10;;;;;;222262;1264;23317;-56
2024/01/17 16:50:33;;;;;;;9.20;7.10;;;19.10;39.20;;;;;;222258;1267;22791;-57
2024/01/17 16:55:38;;;;;;;9.70;7.40;;;19.10;39.20;;;;;;221966;1261;24209;-56
2024/01/17 17:00:42;;;;;;;9.90;7.40;;;19.00;39.30;;;;;;222391;1262;22557;-56
2024/01/17 17:05:47;;;;;;;11.00;7.90;;;18.90;38.90;;;;;;222498;1260;24391;-58
2024/01/17 17:10:52;;;;;;;8.70;7.60;;;18.90;39.50;;;;;;222452;1267;22544;-55
2024/01/17 17:15:56;;;;;;;8.50;7.00;;;18.90;39.90;;;;;;222183;1260;22801;-57
2024/01/17 17:21:04;;;;;;;9.80;7.10;;;18.80;39.60;;;;;;222381;1254;25717;-58
2024/01/17 17:26:09;;;;;;;11.50;8.00;;;18.60;39.70;;;;;;222605;1263;25282;-57
2024/01/17 17:31:18;;;;;;;9.50;7.90;;;18.60;39.80;;;;;;222614;1262;22647;-56
2024/01/17 17:36:23;;;;;;;8.50;7.20;;;18.50;39.80;;;;;;222326;1266;24007;-55
2024/01/17 17:41:28;;;;;;;9.80;8.10;;;18.70;39.70;;;;;;222193;1266;22587;-58
2024/01/17 17:46:36;;;;;;;9.80;7.80;;;19.30;38.60;;;;;;222157;1266;370471;-57
2024/01/17 17:51:40;;;;;;;8.40;7.20;;;19.90;37.80;;;;;;222386;1266;25402;-58
2024/01/17 17:56:46;;;;;;;9.80;7.50;;;20.20;37.40;;;;;;222785;1260;25414;-57
2024/01/17 18:01:51;;;;;;;8.50;7.40;;;20.20;37.40;;;;;;222585;1258;24263;-57
2024/01/17 18:06:55;;;;;;;11.10;7.80;;;20.10;37.50;;;;;;222399;1263;23916;-56
2024/01/17 18:12:03;;;;;;;8.00;6.80;;;20.00;37.70;;;;;;222518;1260;24269;-57
2024/01/17 18:17:12;;;;;;;8.10;6.40;;;19.90;38.00;;;;;;222746;1262;22533;-57
2024/01/17 18:22:19;;;;;;;9.80;7.00;;;19.60;38.40;;;;;;222604;1266;25495;-54
2024/01/17 18:27:25;;;;;;;8.70;7.00;;;19.50;38.70;;;;;;222447;1260;22672;-56
2024/01/17 18:32:33;;;;;;;10.10;7.20;;;19.40;38.60;;;;;;222406;1266;22781;-54
2024/01/17 18:37:38;;;;;;;9.70;7.30;;;19.30;38.70;;;;;;222178;1267;24378;-54
2024/01/17 18:42:42;;;;;;;10.40;7.40;;;19.20;39.10;;;;;;222403;1260;26639;-53
2024/01/17 18:47:50;;;;;;;8.40;6.90;;;19.20;39.10;;;;;;222379;1262;24297;-57
2024/01/17 18:52:56;;;;;;;9.00;7.00;;;19.10;39.40;;;;;;222749;1267;22650;-57
2024/01/17 18:58:01;;;;;;;9.40;6.80;;;19.10;38.90;;;;;;222863;1260;22969;-56
2024/01/17 19:03:08;;;;;;;9.90;7.40;;;19.10;39.20;;;;;;222675;1264;22950;-52
2024/01/17 19:08:13;;;;;;;10.80;7.40;;;19.10;39.30;;;;;;222108;1268;22565;-57
2024/01/17 19:13:18;;;;;;;9.00;6.90;;;18.90;38.90;;;;;;222572;1267;24028;-57
2024/01/17 19:18:22;;;;;;;9.50;7.30;;;18.90;39.40;;;;;;222298;1264;25274;-55
2024/01/17 19:23:27;;;;;;;9.80;7.80;;;18.80;39.50;;;;;;222404;1260;24218;-56
2024/01/17 19:28:35;;;;;;;12.00;7.60;;;18.70;39.70;;;;;;222191;1261;25357;-56
2024/01/17 19:33:43;;;;;;;9.70;6.90;;;18.70;39.90;;;;;;222235;1262;24271;-55
2024/01/17 19:38:51;;;;;;;7.60;6.80;;;18.60;40.00;;;;;;222236;1264;24200;-58
2024/01/17 19:43:56;;;;;;;8.10;6.70;;;18.90;39.70;;;;;;222967;1264;24205;-57
2024/01/17 19:49:01;;;;;;;10.20;7.50;;;19.50;38.70;;;;;;222625;1262;24203;-56
2024/01/17 19:54:08;;;;;;;8.50;6.30;;;20.00;37.90;;;;;;222474;1252;22672;-55
2024/01/17 19:59:13;;;;;;;7.80;6.70;;;20.20;37.70;;;;;;222589;1263;24185;-58
2024/01/17 20:04:21;;;;;;;8.40;6.90;;;20.20;37.60;;;;;;222569;1264;25457;-57
2024/01/17 20:09:25;;;;;;;9.20;6.80;;;20.00;37.90;;;;;;222368;1260;25297;-54
2024/01/17 20:14:33;;;;;;;8.00;6.40;;;19.90;38.20;;;;;;222443;1260;24235;-57
2024/01/17 20:19:37;;;;;;;9.30;7.00;;;19.70;38.40;;;;;;222575;1264;26303;-57
2024/01/17 20:24:42;;;;;;;8.20;6.60;;;19.50;38.70;;;;;;222330;1244;24226;-58
2024/01/17 20:29:49;;;;;;;8.50;6.80;;;19.40;39.00;;;;;;222519;1254;22521;-58
2024/01/17 20:34:57;;;;;;;8.40;6.10;;;19.30;39.00;;;;;;222278;1265;22523;-56
2024/01/17 20:40:04;;;;;;;8.40;6.70;;;19.30;39.60;;;;;;222515;1265;22532;-55
2024/01/17 20:45:12;;;;;;;7.90;6.20;;;19.10;39.30;;;;;;222524;1260;22509;-57
2024/01/17 20:50:19;;;;;;;9.50;7.00;;;19.10;39.40;;;;;;222659;1260;22530;-56
2024/01/17 20:55:40;;;;;;;8.00;6.70;;;19.10;39.50;;;;;;222684;1258;24308;-57
2024/01/17 21:00:50;;;;;;;8.30;6.40;;;19.00;39.50;;;;;;222975;1256;22521;-56
2024/01/17 21:05:55;;;;;;;7.70;6.10;;;19.00;39.40;;;;;;222693;1260;22606;-57
2024/01/17 21:11:00;;;;;;;6.90;6.00;;;19.00;39.60;;;;;;222538;1266;22643;-57
2024/01/17 21:16:09;;;;;;;8.60;6.80;;;18.90;40.00;;;;;;222841;1265;24179;-55
2024/01/17 21:21:13;;;;;;;9.10;6.80;;;18.90;39.60;;;;;;222579;1263;25452;-57
2024/01/17 21:26:20;;;;;;;9.70;6.60;;;19.40;39.10;;;;;;222875;1263;24349;-57
2024/01/17 21:31:25;;;;;;;8.10;7.00;;;19.90;38.20;;;;;;222632;1263;22513;-56
2024/01/17 21:36:31;;;;;;;6.80;5.70;;;20.30;37.60;;;;;;222806;1254;24332;-56
2024/01/17 21:41:38;;;;;;;9.00;6.20;;;20.50;37.40;;;;;;222618;1265;22527;-58
2024/01/17 21:46:43;;;;;;;7.60;5.90;;;20.50;37.80;;;;;;222744;1261;22536;-56
2024/01/17 21:51:51;;;;;;;6.80;6.00;;;20.40;38.00;;;;;;222431;1266;22793;-56
2024/01/17 21:56:56;;;;;;;7.40;6.10;;;20.20;37.80;;;;;;222436;1255;25340;-57
2024/01/17 22:02:08;;;;;;;6.40;5.60;;;20.10;38.30;;;;;;222198;1257;25244;-56
2024/01/17 22:07:14;;;;;;;6.30;5.80;;;19.80;38.60;;;;;;222683;1264;25305;-54
2024/01/17 22:12:22;;;;;;;8.00;6.60;;;19.70;39.00;;;;;;222463;1265;22531;-57
2024/01/17 22:17:29;;;;;;;7.90;6.20;;;19.60;38.90;;;;;;222512;1261;25247;-57
2024/01/17 22:22:34;;;;;;;8.00;5.70;;;19.60;39.20;;;;;;222210;1265;24226;-54
2024/01/17 22:27:48;;;;;;;8.90;6.00;;;19.50;39.20;;;;;;222310;1265;24343;-56
2024/01/17 22:32:56;;;;;;;7.20;6.50;;;19.40;39.20;;;;;;222363;1262;25761;-56
2024/01/17 22:38:04;;;;;;;8.20;6.40;;;19.30;39.40;;;;;;222687;1267;22705;-56
2024/01/17 22:43:12;;;;;;;7.00;6.10;;;19.30;39.40;;;;;;222650;1267;25390;-54
2024/01/17 22:48:17;;;;;;;6.50;5.80;;;19.30;39.50;;;;;;222215;1264;22528;-57
2024/01/17 22:53:22;;;;;;;8.30;6.30;;;19.30;39.90;;;;;;222310;1267;23132;-56
2024/01/17 22:58:27;;;;;;;7.80;6.40;;;19.20;39.60;;;;;;222001;1268;24766;-54
2024/01/17 23:03:32;;;;;;;6.20;5.60;;;19.50;39.10;;;;;;222677;1255;22514;-57
2024/01/17 23:08:46;;;;;;;6.70;5.50;;;20.10;38.30;;;;;;222221;1264;22521;-57
2024/01/17 23:13:55;;;;;;;7.10;6.10;;;20.40;38.10;;;;;;222231;1268;25292;-56
2024/01/17 23:19:00;;;;;;;5.80;5.20;;;20.60;37.60;;;;;;222319;1262;26685;-58
2024/01/17 23:24:07;;;;;;;6.00;5.40;;;20.60;37.60;;;;;;222863;1266;24252;-55
2024/01/17 23:29:32;;;;;;;6.20;5.60;;;20.50;37.70;;;;;;222301;1267;22527;-57
2024/01/17 23:34:36;;;;;;;7.60;6.10;;;20.40;37.90;;;;;;222410;1260;24180;-57
2024/01/17 23:39:41;;;;;;;7.60;5.90;;;20.20;38.30;;;;;;222293;1266;22532;-57
2024/01/17 23:45:00;;;;;;;6.60;5.30;;;20.00;38.20;;;;;;222436;1256;25570;-57
2024/01/17 23:50:09;;;;;;;6.50;5.70;;;19.80;38.90;;;;;;222448;1263;24315;-56
2024/01/17 23:55:23;;;;;;;6.80;5.70;;;19.70;39.10;;;;;;222599;1267;22523;-57
